Time;durP1;ratioP1;P1;durP2;ratioP2;P2;SDS_P1;SDS_P2;PMS_P1;PMS_P2;Temp;Humidity;BMP_temperature;BMP_pressure;BME280_temperature;BME280_humidity;BME280_pressure;Samples;Min_cycle;Max_cycle;Signal;HPM_P1;HPM_P2
2022/06/19 00:01:46;;;;;;;8.02;4.05;;;;;21.70;96249.00;;;;8354813;28;20246;-72
2022/06/19 00:05:50;;;;;;;4.90;4.05;;;;;21.70;96246.00;;;;8351170;28;20236;-73
2022/06/19 00:09:53;;;;;;;12.70;3.90;;;;;21.70;96232.00;;;;8346884;28;20283;-73
2022/06/19 00:13:56;;;;;;;7.40;4.43;;;;;21.80;96229.00;;;;8355143;28;20224;-73
2022/06/19 00:18:01;;;;;;;7.15;4.20;;;;;21.90;96209.00;;;;8346514;28;20775;-71
2022/06/19 00:22:05;;;;;;;7.18;4.40;;;;;21.90;96219.00;;;;8353803;28;20280;-72
2022/06/19 00:26:08;;;;;;;4.65;4.25;;;;;22.00;96206.00;;;;8350349;28;20193;-74
2022/06/19 00:30:13;;;;;;;5.72;4.82;;;;;22.00;96208.00;;;;8353270;28;20197;-74
2022/06/19 00:34:18;;;;;;;6.90;4.40;;;;;22.10;96209.00;;;;8339798;28;20193;-73
2022/06/19 00:38:21;;;;;;;7.20;5.00;;;;;22.10;96198.00;;;;8351841;28;20228;-74
2022/06/19 00:42:26;;;;;;;5.85;4.30;;;;;22.10;96191.00;;;;8346134;28;20289;-72
2022/06/19 00:46:44;;;;;;;11.52;4.57;;;;;22.00;96193.00;;;;8348048;28;20209;-74
2022/06/19 00:50:52;;;;;;;4.75;3.90;;;;;22.00;96183.00;;;;8349087;28;20224;-73
2022/06/19 00:54:58;;;;;;;7.53;4.47;;;;;22.00;96180.00;;;;8346487;28;20200;-73
2022/06/19 00:59:04;;;;;;;9.20;4.05;;;;;22.00;96173.00;;;;8346370;28;20225;-74
2022/06/19 01:03:10;;;;;;;7.57;4.35;;;;;21.90;96160.00;;;;8351697;28;20235;-75
2022/06/19 01:07:16;;;;;;;7.65;4.32;;;;;21.90;96159.00;;;;8348460;28;20642;-73
2022/06/19 01:11:22;;;;;;;4.63;4.03;;;;;21.90;96150.00;;;;8346598;28;20285;-74
2022/06/19 01:15:27;;;;;;;8.00;4.35;;;;;21.80;96144.00;;;;8354204;28;20824;-74
2022/06/19 01:19:34;;;;;;;9.10;4.57;;;;;21.80;96141.00;;;;8346086;28;20646;-73
2022/06/19 01:23:48;;;;;;;6.85;4.35;;;;;21.80;96136.00;;;;8355061;28;20980;-74
2022/06/19 01:32:17;;;;;;;8.27;4.88;;;;;21.80;96127.00;;;;8329364;28;20197;-73
2022/06/19 01:36:22;;;;;;;6.93;4.70;;;;;21.70;96123.00;;;;8330053;28;20201;-73
2022/06/19 01:40:28;;;;;;;7.80;4.90;;;;;21.70;96111.00;;;;8353749;28;20700;-74
2022/06/19 01:44:33;;;;;;;4.78;4.20;;;;;21.60;96108.00;;;;8341032;28;20212;-75
2022/06/19 01:48:38;;;;;;;7.65;4.65;;;;;21.60;96094.00;;;;8350080;28;20232;-72
2022/06/19 01:52:41;;;;;;;7.68;4.68;;;;;21.50;96094.00;;;;8350246;28;20233;-73
2022/06/19 01:56:46;;;;;;;5.50;4.88;;;;;21.50;96078.00;;;;8353637;28;20279;-74
2022/06/19 02:00:51;;;;;;;8.07;4.53;;;;;21.40;96072.00;;;;8355717;28;20708;-73
2022/06/19 02:04:56;;;;;;;5.15;4.60;;;;;21.40;96057.00;;;;8357867;28;20726;-72
2022/06/19 02:09:00;;;;;;;8.20;4.72;;;;;21.30;96052.00;;;;8358727;28;20790;-74
2022/06/19 02:13:04;;;;;;;5.35;4.85;;;;;21.20;96054.00;;;;8354811;28;20317;-75
2022/06/19 02:17:15;;;;;;;9.93;4.38;;;;;21.20;96050.00;;;;8347844;28;20207;-73
2022/06/19 02:21:22;;;;;;;6.78;4.50;;;;;21.10;96047.00;;;;8356609;28;20792;-75
2022/06/19 02:25:25;;;;;;;6.25;4.60;;;;;21.10;96047.00;;;;8354765;28;20268;-74
2022/06/19 02:29:29;;;;;;;7.20;4.60;;;;;21.00;96039.00;;;;8346212;28;20200;-73
2022/06/19 02:33:39;;;;;;;6.38;4.40;;;;;20.90;96033.00;;;;8347536;28;20204;-72
2022/06/19 02:37:46;;;;;;;10.55;5.07;;;;;20.80;96038.00;;;;8350526;28;20215;-73
2022/06/19 02:41:58;;;;;;;7.32;4.68;;;;;20.80;96024.00;;;;8357023;28;20309;-72
2022/06/19 02:46:02;;;;;;;6.07;5.25;;;;;20.80;96028.00;;;;8354367;28;20765;-72
2022/06/19 02:50:11;;;;;;;6.50;4.78;;;;;20.80;96015.00;;;;8356691;28;20197;-72
2022/06/19 02:54:14;;;;;;;7.65;4.55;;;;;20.90;96009.00;;;;8349376;28;20193;-72
2022/06/19 02:58:19;;;;;;;7.90;4.30;;;;;20.90;95992.00;;;;8354383;28;20200;-72
2022/06/19 03:02:23;;;;;;;7.18;4.45;;;;;20.90;95994.00;;;;8361519;23;20258;-72
2022/06/19 03:06:28;;;;;;;5.03;4.53;;;;;20.90;95994.00;;;;8387167;28;20240;-72
2022/06/19 03:10:31;;;;;;;9.00;4.30;;;;;20.90;95997.00;;;;8385472;28;20200;-72
2022/06/19 03:14:34;;;;;;;4.55;4.00;;;;;21.00;95996.00;;;;8385890;28;20554;-74
2022/06/19 03:18:38;;;;;;;4.38;3.97;;;;;21.00;96006.00;;;;8386440;28;21033;-73
2022/06/19 03:22:43;;;;;;;8.60;4.18;;;;;21.10;96000.00;;;;8383758;28;20301;-73
2022/06/19 03:26:46;;;;;;;4.35;3.95;;;;;21.10;96005.00;;;;8387183;28;20214;-75
2022/06/19 03:30:52;;;;;;;8.15;4.35;;;;;21.20;95998.00;;;;8387783;28;20318;-75
2022/06/19 03:34:55;;;;;;;7.70;4.55;;;;;21.30;95996.00;;;;8375661;28;20192;-74
2022/06/19 03:38:59;;;;;;;5.32;4.05;;;;;21.40;96007.00;;;;8369853;28;20292;-73
2022/06/19 03:43:02;;;;;;;5.65;3.95;;;;;21.40;96010.00;;;;8371751;28;20214;-74
2022/06/19 03:47:06;;;;;;;6.53;4.53;;;;;21.50;96017.00;;;;8383799;28;20202;-72
2022/06/19 03:51:10;;;;;;;6.47;3.95;;;;;21.60;96012.00;;;;8379124;28;20210;-74
2022/06/19 03:55:15;;;;;;;7.07;3.95;;;;;21.70;96011.00;;;;8364703;28;20346;-74
2022/06/19 03:59:18;;;;;;;5.55;3.85;;;;;21.80;96017.00;;;;8383112;28;20192;-72
2022/06/19 04:03:22;;;;;;;12.70;4.70;;;;;21.90;96018.00;;;;8377450;28;20227;-75
2022/06/19 04:07:25;;;;;;;4.90;3.90;;;;;22.10;96022.00;;;;8382284;28;20746;-76
2022/06/19 04:11:30;;;;;;;4.88;4.07;;;;;22.30;96021.00;;;;8371067;28;20280;-74
2022/06/19 04:15:35;;;;;;;9.75;4.28;;;;;22.50;96031.00;;;;8372232;28;20192;-73
2022/06/19 04:19:38;;;;;;;4.78;4.28;;;;;22.80;96026.00;;;;8383329;28;20263;-75
2022/06/19 04:23:42;;;;;;;4.63;4.22;;;;;23.00;96023.00;;;;8363290;28;20295;-72
2022/06/19 04:27:47;;;;;;;5.63;4.40;;;;;23.30;96002.00;;;;8377553;28;20331;-73
2022/06/19 04:31:56;;;;;;;4.93;4.03;;;;;23.50;96015.00;;;;8372491;28;20749;-75
2022/06/19 04:35:59;;;;;;;5.78;3.92;;;;;23.80;96021.00;;;;8373139;28;20192;-75
2022/06/19 04:40:02;;;;;;;4.40;4.00;;;;;24.10;96015.00;;;;8381661;28;20250;-74
2022/06/19 04:44:11;;;;;;;4.65;3.65;;;;;24.40;96010.00;;;;8379760;28;20768;-73
2022/06/19 04:48:14;;;;;;;4.55;4.00;;;;;24.50;96005.00;;;;8362080;28;20295;-72
2022/06/19 04:52:17;;;;;;;6.88;4.40;;;;;24.50;96019.00;;;;8370298;28;20697;-73
2022/06/19 04:56:21;;;;;;;8.02;4.13;;;;;24.60;96018.00;;;;8373750;28;20287;-73
2022/06/19 05:00:26;;;;;;;4.95;4.25;;;;;24.70;96006.00;;;;8366236;28;20220;-73
2022/06/19 05:04:29;;;;;;;11.15;4.43;;;;;24.60;96015.00;;;;8373265;28;20236;-73
2022/06/19 05:08:33;;;;;;;8.98;4.22;;;;;24.70;96018.00;;;;8377488;28;20287;-75
2022/06/19 05:12:36;;;;;;;5.30;3.95;;;;;24.80;96008.00;;;;8381112;28;20230;-75
2022/06/19 05:16:41;;;;;;;4.85;3.72;;;;;24.80;96005.00;;;;8370426;28;20223;-73
2022/06/19 05:20:46;;;;;;;5.57;3.90;;;;;25.00;96006.00;;;;8372047;28;20318;-76
2022/06/19 05:24:49;;;;;;;6.68;3.70;;;;;25.30;96007.00;;;;8378336;28;20253;-78
2022/06/19 05:28:54;;;;;;;5.53;3.63;;;;;25.70;96007.00;;;;8376880;28;20197;-78
2022/06/19 05:32:59;;;;;;;4.70;4.13;;;;;26.10;96001.00;;;;8384683;28;20678;-78
2022/06/19 05:37:03;;;;;;;7.00;4.07;;;;;26.30;96004.00;;;;8379493;28;20198;-80
2022/06/19 05:41:06;;;;;;;6.22;4.05;;;;;26.70;96003.00;;;;8384862;28;20773;-76
2022/06/19 05:45:10;;;;;;;4.72;3.90;;;;;27.20;95994.00;;;;8384332;28;20196;-78
2022/06/19 05:49:15;;;;;;;5.53;3.42;;;;;27.70;95990.00;;;;8391897;28;20200;-79
2022/06/19 05:53:18;;;;;;;4.25;3.67;;;;;28.00;95990.00;;;;8382123;28;20657;-79
2022/06/19 05:57:22;;;;;;;7.13;3.33;;;;;28.30;95981.00;;;;8385357;28;20226;-80
2022/06/19 06:01:28;;;;;;;4.95;3.70;;;;;28.70;95975.00;;;;8390133;28;20247;-72
2022/06/19 06:05:33;;;;;;;4.60;3.60;;;;;28.90;95970.00;;;;8390349;28;20283;-77
2022/06/19 06:09:37;;;;;;;4.47;3.53;;;;;29.20;95963.00;;;;8386517;28;20196;-76
2022/06/19 06:13:40;;;;;;;3.92;3.60;;;;;29.40;95964.00;;;;8368794;28;20284;-80
2022/06/19 06:17:43;;;;;;;4.40;3.53;;;;;29.70;95963.00;;;;8384017;28;20211;-80
2022/06/19 06:21:48;;;;;;;5.10;3.67;;;;;30.00;95959.00;;;;8378000;28;20658;-71
2022/06/19 06:25:58;;;;;;;7.15;3.78;;;;;30.30;95971.00;;;;8385718;28;20192;-77
2022/06/19 06:30:02;;;;;;;3.83;3.53;;;;;30.70;95960.00;;;;8384036;28;20211;-79
2022/06/19 06:34:06;;;;;;;8.27;3.67;;;;;30.90;95956.00;;;;8370296;28;20192;-77
2022/06/19 06:38:10;;;;;;;6.68;3.20;;;;;31.30;95948.00;;;;8381641;28;20732;-78
2022/06/19 06:42:14;;;;;;;3.80;3.00;;;;;31.60;95957.00;;;;8379534;28;20220;-84
2022/06/19 06:46:19;;;;;;;7.43;4.13;;;;;31.80;95970.00;;;;8386085;28;20235;-84
2022/06/19 06:50:23;;;;;;;5.30;3.22;;;;;32.00;95970.00;;;;8390543;28;20710;-77
2022/06/19 06:54:29;;;;;;;6.15;3.38;;;;;32.30;95977.00;;;;8375527;28;20712;-81
2022/06/19 06:58:33;;;;;;;6.57;3.33;;;;;32.50;95970.00;;;;8386378;28;20671;-82
2022/06/19 07:02:39;;;;;;;9.95;3.60;;;;;32.80;95979.00;;;;8375958;28;20250;-76
2022/06/19 07:06:42;;;;;;;5.53;3.15;;;;;32.90;95967.00;;;;8382770;28;20203;-79
2022/06/19 07:10:47;;;;;;;4.60;3.22;;;;;33.50;95966.00;;;;8378266;28;20299;-79
2022/06/19 07:14:50;;;;;;;4.05;3.22;;;;;33.60;95961.00;;;;8385107;28;20797;-83
2022/06/19 07:18:54;;;;;;;10.35;3.67;;;;;33.50;95967.00;;;;8386929;28;20196;-85
2022/06/19 07:22:57;;;;;;;8.70;3.05;;;;;33.60;95966.00;;;;8371328;28;20708;-75
2022/06/19 07:27:02;;;;;;;10.55;3.75;;;;;33.60;95961.00;;;;8373896;28;20208;-80
2022/06/19 07:31:06;;;;;;;9.40;2.85;;;;;33.70;95971.00;;;;8373114;28;20431;-70
2022/06/19 07:35:10;;;;;;;5.10;3.00;;;;;33.90;95949.00;;;;8367382;28;20281;-71
2022/06/19 07:39:13;;;;;;;5.38;3.25;;;;;34.30;95947.00;;;;8381923;28;20589;-74
2022/06/19 07:43:17;;;;;;;7.45;3.45;;;;;34.60;95933.00;;;;8380490;28;20237;-78
2022/06/19 07:51:41;;;;;;;8.45;3.40;;;;;35.30;95927.00;;;;8386953;28;20239;-75
2022/06/19 07:55:45;;;;;;;7.55;3.28;;;;;35.40;95936.00;;;;8365550;28;20219;-82
2022/06/19 07:59:49;;;;;;;5.72;2.83;;;;;35.60;95934.00;;;;8380670;28;20707;-80
2022/06/19 08:03:53;;;;;;;8.95;3.35;;;;;35.80;95932.00;;;;8377863;28;20315;-84
2022/06/19 08:07:57;;;;;;;5.63;3.35;;;;;36.30;95928.00;;;;8383996;28;20279;-81
2022/06/19 08:12:01;;;;;;;6.47;3.30;;;;;36.40;95928.00;;;;8382362;28;20288;-79
2022/06/19 08:16:09;;;;;;;9.45;3.42;;;;;36.30;95939.00;;;;8378841;28;20658;-80
2022/06/19 08:20:13;;;;;;;8.73;3.28;;;;;36.50;95933.00;;;;8381089;28;20897;-79
2022/06/19 08:24:17;;;;;;;12.00;3.50;;;;;36.90;95928.00;;;;8377452;28;20238;-81
2022/06/19 08:28:23;;;;;;;10.00;3.83;;;;;37.10;95935.00;;;;8375726;28;20195;-79
2022/06/19 08:32:27;;;;;;;8.32;3.55;;;;;37.40;95939.00;;;;8374788;28;20292;-81
2022/06/19 08:36:35;;;;;;;15.05;3.67;;;;;37.70;95955.00;;;;8377856;28;20326;-74
2022/06/19 08:40:53;;;;;;;11.52;4.15;;;;;38.00;95950.00;;;;8373986;28;20606;-73
2022/06/19 08:45:25;;;;;;;8.25;3.42;;;;;38.40;95953.00;;;;8376701;28;20196;-79
2022/06/19 08:49:41;;;;;;;8.57;3.30;;;;;38.80;95943.00;;;;8381491;28;21617;-80
2022/06/19 08:53:59;;;;;;;12.15;3.90;;;;;39.20;95940.00;;;;8375184;28;20693;-75
2022/06/19 08:58:12;;;;;;;7.47;3.30;;;;;39.50;95933.00;;;;8370317;28;20557;-76
2022/06/19 09:02:25;;;;;;;10.23;3.63;;;;;39.70;95939.00;;;;8371327;28;20270;-76
2022/06/19 09:06:37;;;;;;;7.72;3.80;;;;;39.80;95937.00;;;;8377521;28;20204;-78
2022/06/19 09:10:47;;;;;;;8.90;3.45;;;;;40.20;95929.00;;;;8382701;28;20204;-75
2022/06/19 09:15:03;;;;;;;12.48;4.20;;;;;40.30;95927.00;;;;8378206;28;20991;-75
2022/06/19 09:19:14;;;;;;;15.27;4.00;;;;;40.80;95924.00;;;;8388274;28;20678;-76
2022/06/19 09:23:54;;;;;;;14.85;4.15;;;;;40.90;95921.00;;;;8376098;28;20311;-70
2022/06/19 09:28:09;;;;;;;11.52;3.67;;;;;41.20;95921.00;;;;8378544;28;20224;-69
2022/06/19 09:32:20;;;;;;;11.82;3.92;;;;;41.40;95912.00;;;;8370588;28;20705;-67
2022/06/19 09:36:29;;;;;;;11.43;3.80;;;;;41.70;95917.00;;;;8386259;28;20624;-69
2022/06/19 09:40:40;;;;;;;13.80;4.25;;;;;42.30;95910.00;;;;8387980;28;20277;-71
2022/06/19 09:44:50;;;;;;;11.35;3.67;;;;;42.50;95912.00;;;;8368782;28;20224;-69
2022/06/19 09:48:58;;;;;;;15.40;3.97;;;;;42.60;95901.00;;;;8390514;28;20197;-67
2022/06/19 09:53:10;;;;;;;12.60;4.00;;;;;43.20;95906.00;;;;8387581;28;20819;-69
2022/06/19 09:57:20;;;;;;;14.10;4.88;;;;;43.10;95909.00;;;;8375935;28;20588;-69
2022/06/19 10:01:32;;;;;;;12.90;3.80;;;;;43.40;95909.00;;;;8379962;28;20216;-69
2022/06/19 10:05:41;;;;;;;11.63;4.13;;;;;44.20;95897.00;;;;8381380;28;20228;-69
2022/06/19 10:09:50;;;;;;;12.80;3.60;;;;;44.00;95901.00;;;;8384435;28;20982;-69
2022/06/19 10:14:00;;;;;;;16.40;4.45;;;;;43.90;95906.00;;;;8382144;28;20205;-69
2022/06/19 10:18:10;;;;;;;13.75;4.22;;;;;43.90;95904.00;;;;8374553;28;20284;-70
2022/06/19 10:22:27;;;;;;;12.55;4.55;;;;;44.00;95893.00;;;;8382350;28;20247;-69
2022/06/19 10:26:39;;;;;;;17.02;4.25;;;;;44.70;95888.00;;;;8378105;28;20287;-69
2022/06/19 10:30:55;;;;;;;13.13;4.55;;;;;44.60;95891.00;;;;8385110;28;20288;-68
2022/06/19 10:35:12;;;;;;;18.73;5.10;;;;;45.10;95881.00;;;;8393765;28;20219;-69
2022/06/19 10:39:29;;;;;;;13.27;4.45;;;;;44.90;95881.00;;;;8378744;28;20629;-70
2022/06/19 10:43:44;;;;;;;17.73;5.05;;;;;44.90;95882.00;;;;8380869;28;20228;-70
2022/06/19 10:48:20;;;;;;;12.02;4.55;;;;;43.90;95879.00;;;;8388365;28;20279;-68
2022/06/19 10:52:28;;;;;;;9.63;4.15;;;;;43.50;95891.00;;;;8387460;28;20602;-68
2022/06/19 10:56:39;;;;;;;17.77;4.85;;;;;43.90;95888.00;;;;8386145;28;20200;-69
2022/06/19 11:00:42;;;;;;;16.95;4.32;;;;;44.00;95883.00;;;;8384872;28;20205;-69
2022/06/19 11:04:54;;;;;;;13.80;4.65;;;;;44.70;95876.00;;;;8372049;28;20250;-69
2022/06/19 11:09:02;;;;;;;12.60;5.00;;;;;44.80;95869.00;;;;8376519;28;20200;-70
2022/06/19 11:13:05;;;;;;;12.05;5.07;;;;;44.70;95869.00;;;;8370163;28;20194;-69
2022/06/19 11:17:15;;;;;;;12.32;4.72;;;;;44.70;95856.00;;;;8386614;28;20195;-69
2022/06/19 11:21:23;;;;;;;17.73;5.63;;;;;44.40;95852.00;;;;8384527;28;20199;-69
2022/06/19 11:25:34;;;;;;;15.70;5.00;;;;;44.50;95848.00;;;;8382422;28;20235;-70
2022/06/19 11:29:38;;;;;;;14.20;4.80;;;;;45.30;95836.00;;;;8379169;28;20206;-69
2022/06/19 11:33:42;;;;;;;18.58;5.20;;;;;45.50;95838.00;;;;8385127;28;20635;-69
2022/06/19 11:37:51;;;;;;;13.98;4.85;;;;;44.70;95830.00;;;;8384651;28;20310;-68
2022/06/19 11:41:54;;;;;;;21.83;5.45;;;;;44.20;95830.00;;;;8371833;28;20534;-70
2022/06/19 11:46:01;;;;;;;20.75;5.25;;;;;43.70;95827.00;;;;8372364;28;20224;-69
2022/06/19 11:50:23;;;;;;;16.77;4.65;;;;;43.20;95830.00;;;;8378894;28;20208;-68
2022/06/19 11:54:31;;;;;;;25.88;6.43;;;;;43.10;95819.00;;;;8374217;28;20204;-69
2022/06/19 11:58:39;;;;;;;17.80;4.78;;;;;43.60;95828.00;;;;8375919;28;20275;-69
2022/06/19 12:02:43;;;;;;;13.70;4.97;;;;;43.60;95831.00;;;;8378350;28;20231;-67
2022/06/19 12:06:50;;;;;;;19.77;4.95;;;;;43.10;95827.00;;;;8380640;28;20210;-68
2022/06/19 12:10:59;;;;;;;20.80;5.05;;;;;43.40;95823.00;;;;8380842;28;20610;-69
2022/06/19 12:15:16;;;;;;;24.70;5.40;;;;;44.00;95821.00;;;;8373564;28;20203;-69
2022/06/19 12:19:25;;;;;;;19.13;5.60;;;;;43.90;95812.00;;;;8377221;28;20204;-69
2022/06/19 12:23:33;;;;;;;22.10;6.05;;;;;43.70;95809.00;;;;8374913;28;20319;-69
2022/06/19 12:27:43;;;;;;;14.18;5.38;;;;;43.70;95812.00;;;;8384824;28;20214;-68
2022/06/19 12:31:48;;;;;;;18.80;5.97;;;;;44.10;95806.00;;;;8386066;28;20216;-68
2022/06/19 12:35:51;;;;;;;17.38;5.30;;;;;44.00;95805.00;;;;8378321;28;20199;-68
2022/06/19 12:39:55;;;;;;;18.40;5.57;;;;;43.70;95807.00;;;;8386168;28;20216;-69
2022/06/19 12:44:14;;;;;;;12.38;6.00;;;;;43.60;95802.00;;;;8372796;28;20239;-68
2022/06/19 12:48:41;;;;;;;22.00;5.50;;;;;43.00;95804.00;;;;8377834;28;20207;-68
2022/06/19 12:52:53;;;;;;;21.45;5.65;;;;;42.70;95804.00;;;;8378160;28;20211;-68
2022/06/19 12:57:10;;;;;;;17.98;5.38;;;;;42.60;95792.00;;;;8380476;28;20972;-68
2022/06/19 13:01:23;;;;;;;21.05;5.57;;;;;42.30;95784.00;;;;8377231;28;20203;-70
2022/06/19 13:05:44;;;;;;;20.25;5.68;;;;;41.70;95778.00;;;;8338671;28;20610;-69
2022/06/19 13:09:59;;;;;;;13.90;5.63;;;;;41.60;95782.00;;;;8351449;28;20588;-68
2022/06/19 13:14:31;;;;;;;15.00;6.28;;;;;42.00;95782.00;;;;8339503;28;20197;-68
2022/06/19 13:19:01;;;;;;;20.50;6.50;;;;;42.60;95786.00;;;;8344708;28;20189;-68
2022/06/19 13:23:20;;;;;;;17.98;6.57;;;;;42.90;95783.00;;;;8344395;28;20224;-68
2022/06/19 13:27:37;;;;;;;13.07;5.57;;;;;42.90;95775.00;;;;8349339;28;20203;-68
2022/06/19 13:31:48;;;;;;;19.48;6.28;;;;;43.30;95763.00;;;;8343054;28;20291;-69
2022/06/19 13:35:59;;;;;;;15.07;6.47;;;;;43.40;95764.00;;;;8325336;28;20235;-69
2022/06/19 13:40:10;;;;;;;21.40;7.00;;;;;43.60;95758.00;;;;8352238;28;20236;-69
2022/06/19 13:44:25;;;;;;;16.35;6.40;;;;;43.50;95764.00;;;;8335024;28;20227;-70
2022/06/19 13:48:34;;;;;;;16.15;6.60;;;;;43.90;95756.00;;;;8344628;28;20250;-69
2022/06/19 13:52:55;;;;;;;13.50;6.00;;;;;44.20;95754.00;;;;8339096;28;20201;-69
2022/06/19 13:57:04;;;;;;;19.00;5.90;;;;;44.40;95750.00;;;;8344781;28;20311;-68
2022/06/19 14:01:17;;;;;;;19.15;5.75;;;;;44.40;95747.00;;;;8357478;28;20254;-68
2022/06/19 14:05:28;;;;;;;25.83;7.05;;;;;44.20;95738.00;;;;8388120;28;20253;-69
2022/06/19 14:09:41;;;;;;;25.48;7.40;;;;;44.30;95735.00;;;;8393990;28;20194;-69
2022/06/19 14:13:49;;;;;;;17.80;6.53;;;;;44.80;95728.00;;;;8379849;28;20200;-69
2022/06/19 14:18:03;;;;;;;17.52;6.13;;;;;45.40;95724.00;;;;8372700;28;20200;-68
2022/06/19 14:22:15;;;;;;;17.75;6.90;;;;;45.40;95726.00;;;;8382346;28;20197;-68
2022/06/19 14:26:29;;;;;;;21.73;7.45;;;;;45.60;95729.00;;;;8381304;28;20255;-69
2022/06/19 14:30:33;;;;;;;19.23;6.88;;;;;45.60;95715.00;;;;8382816;28;20282;-68
2022/06/19 14:35:18;;;;;;;21.42;6.88;;;;;44.60;95726.00;;;;8377829;28;20282;-68
2022/06/19 14:39:38;;;;;;;21.30;6.88;;;;;44.70;95723.00;;;;8377268;28;20286;-70
2022/06/19 14:43:55;;;;;;;26.95;7.93;;;;;44.80;95711.00;;;;8378085;28;20901;-70
2022/06/19 14:48:09;;;;;;;19.00;6.90;;;;;44.90;95711.00;;;;8386313;28;20214;-68
2022/06/19 14:52:23;;;;;;;17.40;7.03;;;;;45.60;95714.00;;;;8389435;28;20231;-69
2022/06/19 14:56:55;;;;;;;22.20;7.05;;;;;45.60;95701.00;;;;8373877;28;20200;-70
2022/06/19 15:01:02;;;;;;;17.42;6.28;;;;;45.60;95701.00;;;;8375517;28;20276;-71
2022/06/19 15:05:21;;;;;;;19.73;6.75;;;;;45.20;95695.00;;;;8377079;28;20266;-69
2022/06/19 15:09:26;;;;;;;19.08;6.70;;;;;45.30;95692.00;;;;8373749;28;20239;-69
2022/06/19 15:13:35;;;;;;;21.10;6.75;;;;;45.00;95693.00;;;;8381768;28;20191;-72
2022/06/19 15:17:42;;;;;;;26.13;6.40;;;;;43.70;95692.00;;;;8373404;28;20195;-69
2022/06/19 15:21:56;;;;;;;21.80;6.20;;;;;43.50;95688.00;;;;8384591;28;20661;-69
2022/06/19 15:26:32;;;;;;;23.17;5.80;;;;;43.90;95677.00;;;;8384092;28;20237;-70
2022/06/19 15:30:39;;;;;;;20.17;5.65;;;;;43.50;95687.00;;;;8377834;28;20192;-69
2022/06/19 15:34:53;;;;;;;17.48;6.38;;;;;43.10;95681.00;;;;8383837;28;20206;-69
2022/06/19 15:39:31;;;;;;;25.13;5.53;;;;;42.70;95674.00;;;;8397518;28;20284;-68
2022/06/19 15:43:55;;;;;;;17.30;5.80;;;;;42.60;95682.00;;;;8383967;28;20265;-69
2022/06/19 15:48:19;;;;;;;20.40;6.70;;;;;42.60;95656.00;;;;8382786;28;20199;-69
2022/06/19 15:52:31;;;;;;;23.10;6.00;;;;;42.20;95667.00;;;;8372376;28;20187;-68
2022/06/19 15:56:38;;;;;;;20.88;5.65;;;;;42.40;95663.00;;;;8385624;28;20287;-70
2022/06/19 16:00:43;;;;;;;17.25;5.97;;;;;42.30;95660.00;;;;8386691;28;20238;-68
2022/06/19 16:04:50;;;;;;;24.05;6.05;;;;;41.90;95655.00;;;;8378900;28;20653;-69
2022/06/19 16:09:00;;;;;;;24.08;6.13;;;;;41.60;95655.00;;;;8376436;28;20200;-69
2022/06/19 16:13:16;;;;;;;16.48;6.00;;;;;41.50;95657.00;;;;8380897;28;20214;-69
2022/06/19 16:17:26;;;;;;;20.20;6.00;;;;;41.60;95653.00;;;;8379818;28;20210;-68
2022/06/19 16:21:32;;;;;;;15.43;5.90;;;;;41.90;95656.00;;;;8380158;28;20203;-70
2022/06/19 16:25:41;;;;;;;19.48;5.90;;;;;42.10;95659.00;;;;8379315;28;20227;-69
2022/06/19 16:29:47;;;;;;;20.73;5.68;;;;;42.10;95651.00;;;;8382324;28;20202;-70
2022/06/19 16:33:53;;;;;;;16.63;5.68;;;;;42.10;95647.00;;;;8387625;28;20241;-70
2022/06/19 16:46:49;;;;;;;17.52;5.75;;;;;42.00;95642.00;;;;8378119;28;20692;-70
2022/06/19 16:50:56;;;;;;;17.15;5.70;;;;;42.40;95652.00;;;;8375523;28;20638;-69
2022/06/19 16:55:03;;;;;;;21.98;6.78;;;;;42.90;95649.00;;;;8371547;28;20650;-70
2022/06/19 16:59:11;;;;;;;14.35;6.05;;;;;43.00;95647.00;;;;8371548;28;20235;-69
2022/06/19 17:03:18;;;;;;;15.52;6.28;;;;;42.80;95648.00;;;;8378128;28;20231;-69
2022/06/19 17:07:24;;;;;;;18.95;5.78;;;;;42.50;95648.00;;;;8384232;28;20255;-69
2022/06/19 17:11:31;;;;;;;12.68;5.72;;;;;42.20;95650.00;;;;8373547;28;20200;-70
2022/06/19 17:15:36;;;;;;;12.32;5.88;;;;;42.00;95656.00;;;;8370679;28;20200;-70
2022/06/19 17:19:56;;;;;;;16.85;6.28;;;;;42.00;95651.00;;;;8385386;28;20286;-69
2022/06/19 17:24:12;;;;;;;19.65;6.30;;;;;41.90;95658.00;;;;8382654;28;20281;-70
2022/06/19 17:28:15;;;;;;;25.23;6.38;;;;;42.10;95651.00;;;;8382544;28;20269;-68
2022/06/19 17:32:45;;;;;;;16.77;6.32;;;;;42.10;95653.00;;;;8385630;28;20204;-70
2022/06/19 17:36:50;;;;;;;15.10;5.38;;;;;42.30;95657.00;;;;8387307;28;20196;-69
2022/06/19 17:40:57;;;;;;;24.83;7.13;;;;;42.30;95663.00;;;;8393758;28;20278;-70
2022/06/19 17:45:02;;;;;;;19.92;5.97;;;;;42.30;95664.00;;;;8376792;28;20307;-69
2022/06/19 17:49:08;;;;;;;16.80;6.40;;;;;42.20;95671.00;;;;8392324;28;20228;-69
2022/06/19 17:53:36;;;;;;;20.08;6.63;;;;;42.10;95670.00;;;;8376175;28;20188;-68
2022/06/19 17:57:41;;;;;;;21.27;7.38;;;;;41.70;95665.00;;;;8386565;28;20231;-70
2022/06/19 18:01:45;;;;;;;19.70;6.72;;;;;40.90;95666.00;;;;8388340;28;20608;-68
2022/06/19 18:05:53;;;;;;;40.30;7.25;;;;;40.00;95664.00;;;;8381534;28;20302;-68
2022/06/19 18:10:00;;;;;;;20.90;6.97;;;;;39.00;95669.00;;;;8392341;28;20271;-69
2022/06/19 18:14:09;;;;;;;21.63;7.63;;;;;38.20;95673.00;;;;8382205;28;20200;-70
2022/06/19 18:22:36;;;;;;;18.73;7.70;;;;;36.10;95676.00;;;;8379766;28;20197;-69
2022/06/19 18:26:41;;;;;;;15.15;6.55;;;;;35.40;95678.00;;;;8383096;28;20304;-70
2022/06/19 18:30:44;;;;;;;51.03;9.15;;;;;34.70;95683.00;;;;8390020;28;20577;-69
2022/06/19 18:34:50;;;;;;;15.18;7.65;;;;;34.00;95672.00;;;;8380161;28;20845;-70
2022/06/19 18:39:22;;;;;;;25.20;7.90;;;;;33.30;95683.00;;;;8377584;28;20254;-69
2022/06/19 18:43:26;;;;;;;20.90;8.40;;;;;32.80;95682.00;;;;8382814;28;20646;-68
2022/06/19 18:47:29;;;;;;;20.23;8.38;;;;;32.40;95678.00;;;;8377456;28;20234;-69
2022/06/19 18:51:33;;;;;;;25.30;8.48;;;;;31.80;95680.00;;;;8384084;28;20196;-68
2022/06/19 18:55:40;;;;;;;19.67;8.90;;;;;31.40;95676.00;;;;8380479;28;20675;-68
2022/06/19 18:59:44;;;;;;;19.10;8.73;;;;;31.00;95676.00;;;;8375730;28;20196;-68
2022/06/19 19:03:48;;;;;;;19.55;8.38;;;;;30.60;95687.00;;;;8375032;28;20685;-69
2022/06/19 19:07:54;;;;;;;24.20;9.38;;;;;30.30;95703.00;;;;8380976;28;20310;-68
2022/06/19 19:11:59;;;;;;;19.13;8.82;;;;;30.30;95706.00;;;;8377359;28;20561;-71
2022/06/19 19:16:13;;;;;;;20.55;9.73;;;;;30.10;95708.00;;;;8384944;28;20218;-69
2022/06/19 19:20:23;;;;;;;25.15;9.57;;;;;29.80;95707.00;;;;8376407;28;20964;-69
2022/06/19 19:24:26;;;;;;;19.38;9.10;;;;;29.50;95711.00;;;;8378020;28;20199;-69
2022/06/19 19:28:34;;;;;;;24.42;10.23;;;;;29.30;95723.00;;;;8379782;28;20688;-70
2022/06/19 19:32:40;;;;;;;21.67;8.80;;;;;29.00;95729.00;;;;8372562;28;20291;-68
2022/06/19 19:36:45;;;;;;;19.15;9.25;;;;;28.80;95729.00;;;;8379473;28;20735;-70
2022/06/19 19:40:49;;;;;;;21.40;9.88;;;;;28.60;95732.00;;;;8381107;28;20192;-69
2022/06/19 19:44:54;;;;;;;25.25;9.85;;;;;28.30;95730.00;;;;8380150;28;20278;-69
2022/06/19 19:48:58;;;;;;;23.88;9.52;;;;;28.10;95729.00;;;;8371081;28;20188;-69
2022/06/19 19:53:02;;;;;;;19.00;9.80;;;;;27.90;95743.00;;;;8385848;28;20553;-69
2022/06/19 19:57:06;;;;;;;25.15;10.23;;;;;27.70;95745.00;;;;8384883;28;20193;-70
2022/06/19 20:01:10;;;;;;;23.08;9.52;;;;;27.60;95745.00;;;;8371616;28;20230;-70
2022/06/19 20:10:32;;;;;;;23.02;9.98;;;;;27.40;95742.00;;;;8387661;28;20228;-69
2022/06/19 20:14:00;;;;;;;21.08;9.98;;;;;27.20;95744.00;;;;8379331;28;20255;-69
2022/06/19 20:18:06;;;;;;;21.25;9.75;;;;;27.00;95736.00;;;;8383019;28;20561;-69
2022/06/19 20:22:13;;;;;;;18.45;9.63;;;;;26.80;95738.00;;;;8379015;28;20200;-69
2022/06/19 20:26:24;;;;;;;24.55;9.95;;;;;26.70;95737.00;;;;8383004;28;20224;-68
2022/06/19 20:30:32;;;;;;;19.83;9.63;;;;;26.50;95738.00;;;;8380080;28;20289;-68
2022/06/19 20:34:37;;;;;;;23.75;10.68;;;;;26.50;95740.00;;;;8377697;28;20769;-68
2022/06/19 20:38:42;;;;;;;24.52;10.40;;;;;26.40;95737.00;;;;8371217;28;20871;-69
2022/06/19 20:42:48;;;;;;;20.83;9.63;;;;;26.20;95730.00;;;;8380172;28;20204;-69
2022/06/19 20:46:51;;;;;;;19.02;10.40;;;;;26.10;95728.00;;;;8379176;28;20295;-69
2022/06/19 20:50:56;;;;;;;18.13;10.20;;;;;26.00;95725.00;;;;8384814;28;20207;-68
2022/06/19 20:55:01;;;;;;;23.17;10.90;;;;;25.90;95724.00;;;;8384958;28;20200;-68
2022/06/19 20:59:05;;;;;;;26.23;10.48;;;;;25.80;95726.00;;;;8371401;28;20694;-68